Carbonado, WA (98323)

7:04 AM PST on December 18, 2014 (GMT -0800)
HADS CARBON RIVER NEAR FAIRFAX NEAR C WA US USGS | Change Station
CLOSE
Current Station
Personal Weather Station
Location: Carbonado, WA
Elevation: 1211 ft
Nearby Weather Stations

Elev 1211 ft 47.03 °N, 122.03 °W | Updated 1 hour ago

Overcast
Overcast
38 °F
Feels Like 38 °F
N
Wind Variable Wind from North
Gusts 0.0 mph

Today
High -- | Low -- °F
--% Chance of Precip.
Yesterday
High -- | Low -- °F
Precip. -- in
7:49 AM 4:20 PM
Waning Crescent, 14% visible
Pressure 29.95 in
Visibility 2.0 miles
Clouds Few 3700 ft
Mostly Cloudy 5500 ft
Overcast 18000 ft
Windchill 38 °F
Dew Point Not available.
Humidity Not available.
Rainfall 0.18 in
Snow Depth Not available.
UV 0 out of 12
Pollen .70 out of 12
Air Quality Not available.
Flu Activity Not available.
METAR KTCM 181458Z AUTO 00000KT 2SM R16/5000FT BR FEW037 BKN055 OVC180 04/04 A2993 RMK AO2 VIS 1 3/4V2 1/2 SLP141 55003 $

More Conditions Fewer Conditions

Pressure 29.95 in
Visibility 2.0 miles
Clouds Few 3700 ft
Mostly Cloudy 5500 ft
Overcast 18000 ft
Windchill 38 °F
Dew Point Not available.
Humidity Not available.
Rainfall 0.18 in
Snow Depth Not available.
UV 0 out of 12
Pollen .70 out of 12
Air Quality Not available.
Flu Activity Not available.
METAR KTCM 181458Z AUTO 00000KT 2SM R16/5000FT BR FEW037 BKN055 OVC180 04/04 A2993 RMK AO2 VIS 1 3/4V2 1/2 SLP141 55003 $

More Conditions Fewer Conditions

10-Day Weather Forecast

Almanac

Astronomy

Dec. 18, 2014 Rise Set
Actual Time
Civil Twilight
Nautical Twilight
Astronomical Twilight
Moon
Length of Visible Light
Length of Day
Tomorrow will be .
, % of the Moon is Illuminated

Today's Extremes

State Highs State Lows

Community

WunderPhotos

Upload Photos

1,778,937 photos uploaded!

WunderBlogs® & News

Nearby

Air Quality

  Air Quality AQ Index Pollutant
Not available.

Snow Depth

Station Depth Elevation

Earthquake Activity

City Distance Mag. Time & Date
Minimum magnitude displayed is 2.5.

Coastal Water Temperatures

Place Temperature

Nearby Weather Stations